Time;durP1;ratioP1;P1;durP2;ratioP2;P2;SDS_P1;SDS_P2;PMS_P1;PMS_P2;Temp;Humidity;BMP_temperature;BMP_pressure;BME280_temperature;BME280_humidity;BME280_pressure;Samples;Min_cycle;Max_cycle;Signal;HPM_P1;HPM_P2
2023/07/13 00:02:12;;;;;;;9.60;8.60;;;;;;;21.76;63.57;100004.54;112970;1239;21972;-86
2023/07/13 00:05:23;;;;;;;;;;;;;;;;;;;;;
2023/07/13 00:08:48;;;;;;;;;;;;;;;;;;;;;
2023/07/13 00:11:34;;;;;;;11.20;8.60;;;;;;;21.69;63.82;100011.08;113971;1233;22299;-87
2023/07/13 00:14:50;;;;;;;11.10;8.20;;;;;;;21.66;63.90;100006.21;113760;1233;22199;-85
2023/07/13 00:18:00;;;;;;;9.70;8.70;;;;;;;21.62;64.00;100005.08;113807;1233;21934;-86
2023/07/13 00:21:14;;;;;;;12.50;8.50;;;;;;;21.60;64.01;100003.55;113976;1233;23692;-85
2023/07/13 00:24:09;;;;;;;11.50;8.20;;;;;;;21.58;63.92;100002.51;113904;1233;22019;-85
2023/07/13 00:27:15;;;;;;;9.00;7.90;;;;;;;21.54;63.92;100007.42;112937;1240;22969;-85
2023/07/13 00:30:27;;;;;;;13.00;8.60;;;;;;;21.53;63.79;100013.73;112844;1240;21967;-86
2023/07/13 00:34:18;;;;;;;9.50;8.60;;;;;;;21.48;63.83;100025.96;113268;1240;22404;-86
2023/07/13 00:41:01;;;;;;;;;;;;;;;;;;;;;
2023/07/13 00:43:52;;;;;;;10.80;7.60;;;;;;;21.40;63.13;100015.66;112960;1240;23006;-84
2023/07/13 00:47:41;;;;;;;11.10;7.60;;;;;;;21.37;63.05;100012.96;113596;1237;22489;-87
2023/07/13 00:50:37;;;;;;;;;;;;;;;;;;;;;
2023/07/13 01:02:10;;;;;;;12.30;8.30;;;;;;;21.16;62.66;100002.43;113486;1239;21958;-87
2023/07/13 01:05:43;;;;;;;9.60;8.20;;;;;;;21.15;62.47;99999.83;113023;1234;23468;-84
2023/07/13 01:10:03;;;;;;;8.30;7.40;;;;;;;21.04;62.34;100000.13;113494;1239;21948;-86
2023/07/13 01:13:20;;;;;;;9.10;7.40;;;;;;;20.97;62.35;100001.58;113429;1239;21939;-82
2023/07/13 01:16:43;;;;;;;9.60;7.30;;;;;;;20.99;62.27;100011.11;113005;1239;22321;-85
2023/07/13 01:19:39;;;;;;;8.50;7.60;;;;;;;20.96;62.48;100008.92;111544;1252;22001;-84
2023/07/13 01:22:26;;;;;;;12.30;7.80;;;;;;;20.96;62.52;100008.98;112152;1246;23706;-85
2023/07/13 01:25:19;;;;;;;9.90;7.30;;;;;;;20.94;62.48;100008.27;112185;1246;23575;-85
2023/07/13 01:31:51;;;;;;;7.80;6.30;;;;;;;20.94;62.48;100023.13;111700;1251;21987;-84
2023/07/13 01:35:06;;;;;;;8.10;6.60;;;;;;;20.93;62.23;100020.66;111961;1252;22737;-84
2023/07/13 01:38:33;;;;;;;9.00;6.70;;;;;;;20.92;61.86;100010.91;112218;1245;22351;-81
2023/07/13 01:41:07;;;;;;;8.60;5.70;;;;;;;20.90;61.33;100004.14;112274;1245;22735;-84
2023/07/13 01:47:15;;;;;;;9.20;5.90;;;;;;;20.81;60.88;100007.90;113029;1240;21949;-85
2023/07/13 01:49:50;;;;;;;6.90;5.40;;;;;;;20.79;60.58;100007.36;112704;1240;23613;-87
2023/07/13 01:52:38;;;;;;;8.40;6.20;;;;;;;20.77;60.40;100002.23;113094;1240;21957;-85
2023/07/13 01:58:45;;;;;;;7.80;6.30;;;;;;;20.77;59.58;99990.09;113951;1233;21958;-87
2023/07/13 02:01:32;;;;;;;10.20;7.00;;;;;;;20.76;59.28;99985.02;113656;1232;23019;-85
2023/07/13 02:07:35;;;;;;;9.80;6.50;;;;;;;20.67;59.13;99965.42;113957;1233;21957;-86
2023/07/13 02:11:07;;;;;;;9.40;6.60;;;;;;;20.59;59.14;99960.32;113901;1232;21952;-85
2023/07/13 02:14:52;;;;;;;;;;;;;;;;;;;;;
2023/07/13 02:18:20;;;;;;;6.20;5.50;;;;;;;20.48;59.09;99953.45;113930;1232;21966;-86
2023/07/13 02:26:27;;;;;;;9.00;5.90;;;;;;;20.41;58.86;99963.56;113459;1238;21925;-87
2023/07/13 02:30:09;;;;;;;;;;;;;;;;;;;;;
2023/07/13 02:34:03;;;;;;;6.90;5.60;;;;;;;20.26;58.63;99969.75;113457;1239;22107;-85
2023/07/13 02:44:08;;;;;;;14.60;7.70;;;;;;;20.06;58.66;99966.57;113917;1232;22078;-85
2023/07/13 02:47:10;;;;;;;9.20;7.00;;;;;;;20.02;58.74;99971.11;113704;1233;23611;-89
2023/07/13 02:50:30;;;;;;;10.80;7.70;;;;;;;19.97;58.99;99973.78;113900;1233;21968;-86
2023/07/13 02:53:07;;;;;;;11.30;7.20;;;;;;;20.00;59.05;99977.48;112657;1239;23140;-84
2023/07/13 02:56:43;;;;;;;11.30;6.80;;;;;;;19.98;59.13;99980.61;113354;1239;23012;-85
2023/07/13 02:59:33;;;;;;;10.50;6.50;;;;;;;19.94;59.35;99982.92;112642;1243;23020;-83
2023/07/13 03:03:03;;;;;;;8.10;7.20;;;;;;;19.91;59.53;99985.61;112629;1243;21979;-87
2023/07/13 03:05:31;;;;;;;8.40;7.10;;;;;;;19.87;59.99;99983.81;112804;1243;21972;-85
2023/07/13 03:26:09;;;;;;;10.20;6.90;;;;;;;19.83;60.56;100007.46;113905;1231;21946;-83
2023/07/13 03:29:34;;;;;;;28.90;26.30;;;;;;;19.87;60.56;100004.59;113844;1233;21963;-84
2023/07/13 03:32:26;;;;;;;11.80;10.40;;;;;;;19.94;60.43;100011.00;113799;1233;21986;-86
2023/07/13 03:35:03;;;;;;;8.50;7.10;;;;;;;20.00;60.25;100010.10;113221;1238;21945;-85
2023/07/13 03:38:26;;;;;;;9.10;6.70;;;;;;;20.09;60.22;100009.92;113235;1238;21942;-84
2023/07/13 03:48:52;;;;;;;9.60;5.00;;;;;;;20.27;59.35;100006.12;112257;1249;21970;-87
2023/07/13 03:55:19;;;;;;;8.80;5.60;;;;;;;20.35;58.56;100009.37;112551;1244;23645;-85
2023/07/13 03:58:48;;;;;;;6.50;4.60;;;;;;;20.38;58.22;100011.58;112566;1244;23732;-85
2023/07/13 04:05:24;;;;;;;7.30;5.40;;;;;;;20.56;57.82;100016.70;112783;1243;22001;-85
2023/07/13 04:08:34;;;;;;;7.40;5.00;;;;;;;20.66;57.52;100001.03;112124;1247;22954;-85
2023/07/13 04:11:42;;;;;;;7.10;4.90;;;;;;;20.87;57.00;100015.25;112205;1247;22405;-83
2023/07/13 04:14:19;;;;;;;10.50;5.50;;;;;;;20.97;56.52;100024.55;111768;1252;21999;-84
2023/07/13 04:17:11;;;;;;;6.70;5.00;;;;;;;21.06;56.03;100028.79;111458;1252;21920;-85
2023/07/13 04:19:53;;;;;;;11.90;5.50;;;;;;;21.15;55.69;100015.59;111539;1252;21954;-84
2023/07/13 04:22:25;;;;;;;6.20;4.70;;;;;;;21.23;55.33;100002.28;112006;1244;22007;-84
2023/07/13 04:24:58;;;;;;;11.90;5.10;;;;;;;21.30;54.99;100001.02;112692;1243;24290;-85
2023/07/13 04:41:30;;;;;;;7.50;4.30;;;;;;;21.57;53.94;100024.54;113096;1241;22220;-84
2023/07/13 04:44:23;;;;;;;5.00;2.90;;;;;;;21.74;53.53;100033.06;112782;1241;21955;-85
2023/07/13 04:47:01;;;;;;;6.70;3.30;;;;;;;21.94;53.24;100035.70;113163;1238;21961;-86
2023/07/13 04:50:22;;;;;;;5.30;3.10;;;;;;;22.21;52.90;100034.90;113303;1239;22185;-85
2023/07/13 05:00:09;;;;;;;5.40;2.60;;;;;;;22.92;50.79;100030.39;113693;1235;21968;-86
2023/07/13 05:04:11;;;;;;;6.30;2.60;;;;;;;23.03;49.73;100033.45;113561;1235;23726;-85
2023/07/13 05:08:29;;;;;;;6.50;3.30;;;;;;;22.94;49.38;100035.40;113990;1233;21964;-86
2023/07/13 05:12:30;;;;;;;7.80;4.30;;;;;;;22.84;49.32;100044.09;113125;1239;21941;-81
2023/07/13 05:15:37;;;;;;;16.10;3.20;;;;;;;22.75;49.57;100052.27;113248;1239;22358;-84
2023/07/13 05:18:56;;;;;;;5.20;3.20;;;;;;;22.68;49.61;100061.77;113182;1239;23810;-83
2023/07/13 05:22:06;;;;;;;8.10;2.70;;;;;;;22.58;49.88;100067.84;113205;1233;22706;-85
2023/07/13 05:32:04;;;;;;;5.70;3.00;;;;;;;22.24;50.82;100087.23;113886;1232;21934;-83
2023/07/13 05:35:27;;;;;;;7.50;3.20;;;;;;;22.08;51.19;100090.38;113794;1233;22997;-82
2023/07/13 05:39:12;;;;;;;7.60;4.20;;;;;;;21.92;51.89;100102.47;113863;1233;21957;-85
2023/07/13 05:42:30;;;;;;;9.80;4.80;;;;;;;21.77;52.37;100118.54;113086;1240;23574;-81
2023/07/13 05:52:44;;;;;;;11.70;3.90;;;;;;;21.40;52.93;100147.36;113455;1239;22343;-83
2023/07/13 05:55:52;;;;;;;6.50;4.10;;;;;;;21.36;53.11;100154.11;113107;1239;21943;-80
2023/07/13 05:59:31;;;;;;;;;;;;;;;;;;;;;
2023/07/13 06:02:42;;;;;;;5.70;3.20;;;;;;;21.23;53.98;100189.14;112381;1244;23842;-82
2023/07/13 06:05:35;;;;;;;10.00;3.70;;;;;;;21.18;54.26;100212.97;112259;1244;22016;-82
2023/07/13 06:08:04;;;;;;;9.20;2.70;;;;;;;21.11;54.69;100232.70;112552;1240;21960;-76
2023/07/13 06:10:53;;;;;;;7.30;3.10;;;;;;;21.06;55.16;100244.57;112038;1244;21946;-74
2023/07/13 06:13:36;;;;;;;9.10;3.40;;;;;;;21.04;55.55;100248.80;112149;1244;23055;-77
2023/07/13 06:16:17;;;;;;;7.70;2.90;;;;;;;20.95;55.92;100253.29;112020;1243;21938;-75
2023/07/13 06:19:04;;;;;;;11.20;3.10;;;;;;;20.80;56.25;100242.63;112422;1237;22395;-76
2023/07/13 06:21:41;;;;;;;8.70;3.60;;;;;;;20.66;56.70;100239.90;113471;1233;21941;-75
2023/07/13 06:24:16;;;;;;;6.10;2.70;;;;;;;20.48;57.45;100242.58;112788;1239;21956;-80
2023/07/13 06:26:57;;;;;;;6.60;3.40;;;;;;;20.33;58.08;100245.38;112796;1239;21952;-79
2023/07/13 06:29:35;;;;;;;3.90;2.90;;;;;;;20.15;58.70;100247.36;112366;1242;22135;-81
2023/07/13 06:32:18;;;;;;;8.20;3.70;;;;;;;19.98;59.29;100244.67;112239;1242;21981;-77
2023/07/13 06:34:48;;;;;;;8.70;3.40;;;;;;;19.80;59.89;100243.17;112293;1242;22440;-78
2023/07/13 06:37:22;;;;;;;5.90;3.20;;;;;;;19.67;60.61;100238.22;111650;1248;21962;-78
2023/07/13 06:40:17;;;;;;;8.70;3.70;;;;;;;19.57;61.19;100236.83;111970;1248;21976;-78
2023/07/13 06:43:01;;;;;;;8.30;3.80;;;;;;;19.47;61.54;100237.08;111301;1248;21958;-77
2023/07/13 06:45:58;;;;;;;7.60;3.30;;;;;;;19.35;62.10;100235.04;111846;1249;21966;-79
2023/07/13 06:48:36;;;;;;;5.00;2.90;;;;;;;19.26;62.50;100231.45;112128;1244;23683;-82
2023/07/13 06:51:28;;;;;;;;;;;;;;;;;;;;;
2023/07/13 06:54:16;;;;;;;7.20;2.70;;;;;;;19.17;63.77;100238.64;111450;1254;22377;-80
2023/07/13 06:56:47;;;;;;;6.20;3.10;;;;;;;19.12;63.91;100238.68;111216;1256;22363;-79
2023/07/13 06:59:19;;;;;;;7.70;3.40;;;;;;;19.12;64.15;100234.64;110728;1260;22725;-79
2023/07/13 07:01:48;;;;;;;6.30;3.70;;;;;;;19.10;64.30;100239.88;111006;1255;23597;-79
2023/07/13 07:04:17;;;;;;;6.90;3.00;;;;;;;19.09;64.49;100244.38;111274;1255;23846;-80
2023/07/13 07:06:48;;;;;;;7.80;2.90;;;;;;;19.09;64.78;100246.69;110773;1258;21944;-79
2023/07/13 07:09:16;;;;;;;6.60;2.80;;;;;;;19.13;65.09;100254.16;111164;1252;23745;-80
2023/07/13 07:11:45;;;;;;;9.70;3.60;;;;;;;19.17;65.34;100250.64;111407;1249;21960;-78
2023/07/13 07:14:31;;;;;;;6.60;3.00;;;;;;;19.19;65.45;100249.63;111839;1244;24414;-79
2023/07/13 07:16:58;;;;;;;35.30;6.20;;;;;;;19.17;65.63;100247.70;112360;1238;22084;-74
2023/07/13 07:19:35;;;;;;;28.50;4.70;;;;;;;19.18;65.98;100248.86;113187;1238;23015;-85
2023/07/13 07:22:25;;;;;;;35.20;5.50;;;;;;;19.24;66.26;100237.05;112831;1238;22006;-76
2023/07/13 07:25:08;;;;;;;7.60;3.30;;;;;;;19.39;66.49;100233.61;112782;1238;22951;-77
2023/07/13 07:27:49;;;;;;;8.10;3.20;;;;;;;19.54;66.28;100227.53;112823;1238;23692;-78
2023/07/13 07:30:37;;;;;;;5.50;3.30;;;;;;;19.62;66.28;100218.64;113009;1238;21947;-78
2023/07/13 07:33:32;;;;;;;6.50;2.90;;;;;;;19.67;66.45;100202.71;113430;1233;21942;-77
2023/07/13 07:36:41;;;;;;;4.90;3.20;;;;;;;19.71;66.38;100193.45;113385;1233;23690;-75
2023/07/13 07:39:27;;;;;;;8.30;3.20;;;;;;;19.67;66.07;100185.75;113361;1233;22824;-77
2023/07/13 07:43:12;;;;;;;13.00;4.70;;;;;;;19.63;66.49;100178.55;113033;1238;23701;-79
2023/07/13 07:52:21;;;;;;;;;;;;;;;;;;;;;
2023/07/13 07:56:07;;;;;;;6.10;2.70;;;;;;;19.82;67.52;100155.81;110352;1267;23610;-81
2023/07/13 07:58:42;;;;;;;7.20;3.70;;;;;;;19.92;67.06;100158.73;110171;1267;21956;-83
2023/07/13 08:01:53;;;;;;;;;;;;;;;;;;;;;
2023/07/13 08:05:06;;;;;;;5.80;3.50;;;;;;;20.21;66.99;100195.63;110122;1267;23702;-83
2023/07/13 08:07:45;;;;;;;5.40;3.30;;;;;;;20.39;66.91;100213.63;109850;1267;22011;-83
2023/07/13 08:10:49;;;;;;;6.00;3.80;;;;;;;20.57;66.73;100218.57;110625;1262;341033;-80
2023/07/13 08:13:44;;;;;;;;;;;;;;;;;;;;;
2023/07/13 08:17:24;;;;;;;;;;;;;;;;;;;;;
2023/07/13 08:21:14;;;;;;;8.30;3.90;;;;;;;20.85;65.88;100228.32;109421;1272;23696;-78
2023/07/13 08:23:58;;;;;;;5.50;2.90;;;;;;;21.06;66.53;100226.94;109395;1272;23662;-78
2023/07/13 08:26:30;;;;;;;5.20;3.30;;;;;;;21.29;66.72;100226.94;109661;1266;23591;-79
2023/07/13 08:29:47;;;;;;;6.60;3.50;;;;;;;21.63;66.81;100229.90;110842;1256;21953;-83
2023/07/13 08:32:25;;;;;;;7.50;3.30;;;;;;;21.97;66.14;100236.88;111065;1259;23610;-81
2023/07/13 08:35:02;;;;;;;4.20;2.50;;;;;;;22.32;65.58;100244.85;111047;1259;22372;-81
2023/07/13 08:37:35;;;;;;;4.40;2.70;;;;;;;22.62;63.97;100253.52;111063;1256;22206;-82
2023/07/13 08:40:10;;;;;;;5.00;2.30;;;;;;;22.85;62.69;100255.67;111318;1256;21980;-81
2023/07/13 08:42:56;;;;;;;3.70;2.10;;;;;;;23.17;61.86;100256.27;111143;1256;21942;-83
2023/07/13 08:45:51;;;;;;;5.00;2.60;;;;;;;23.48;60.57;100257.02;110904;1261;23725;-80
2023/07/13 08:48:33;;;;;;;5.30;2.70;;;;;;;23.79;59.49;100257.67;111148;1259;23048;-82
2023/07/13 08:51:46;;;;;;;4.80;2.30;;;;;;;24.05;58.31;100257.45;111094;1258;21996;-81
2023/07/13 08:54:41;;;;;;;3.90;2.20;;;;;;;24.45;57.73;100258.30;111363;1256;24414;-81
2023/07/13 08:57:43;;;;;;;3.10;1.50;;;;;;;24.90;56.48;100260.46;111947;1241;23034;-81
2023/07/13 09:01:15;;;;;;;;;;;;;;;;;;;;;
2023/07/13 09:04:19;;;;;;;6.70;2.40;;;;;;;25.23;53.23;100258.00;111995;1245;21950;-81
2023/07/13 09:07:44;;;;;;;5.90;2.00;;;;;;;25.46;52.81;100261.95;112555;1245;22986;-81
2023/07/13 09:10:52;;;;;;;4.10;2.00;;;;;;;25.54;51.52;100258.62;111954;1249;23114;-80
2023/07/13 09:14:00;;;;;;;;;;;;;;;;;;;;;
2023/07/13 09:16:49;;;;;;;3.50;1.70;;;;;;;25.29;50.62;100246.09;111735;1251;21969;-81
2023/07/13 09:19:32;;;;;;;3.40;2.00;;;;;;;25.09;50.23;100241.08;111483;1251;21959;-82
2023/07/13 09:22:25;;;;;;;7.10;2.10;;;;;;;24.84;50.24;100232.77;111871;1249;23030;-82
2023/07/13 09:25:32;;;;;;;2.90;1.90;;;;;;;24.60;50.58;100223.75;111897;1249;23657;-81
2023/07/13 09:28:27;;;;;;;3.30;1.90;;;;;;;24.34;51.03;100217.36;112016;1244;23038;-82
2023/07/13 09:31:12;;;;;;;4.60;2.10;;;;;;;24.17;51.10;100217.23;112189;1244;23557;-82
2023/07/13 09:33:45;;;;;;;3.20;2.10;;;;;;;24.00;51.17;100208.95;112550;1239;21988;-81
2023/07/13 09:36:36;;;;;;;9.50;2.30;;;;;;;23.97;51.37;100210.31;113050;1239;21970;-81
2023/07/13 09:39:11;;;;;;;3.60;1.80;;;;;;;23.91;51.36;100206.95;112966;1239;23682;-81
2023/07/13 09:42:19;;;;;;;4.10;2.20;;;;;;;23.86;51.53;100213.70;113803;1233;21931;-80
2023/07/13 09:45:02;;;;;;;4.90;2.40;;;;;;;23.84;51.72;100212.25;113075;1238;23997;-81
2023/07/13 09:47:45;;;;;;;4.70;2.10;;;;;;;23.86;51.68;100207.65;113179;1238;21939;-82
2023/07/13 09:50:16;;;;;;;7.10;3.20;;;;;;;23.94;52.05;100209.98;112622;1243;23863;-81
2023/07/13 09:53:10;;;;;;;;;;;;;;;;;;;;;
2023/07/13 09:55:56;;;;;;;;;;;;;;;24.31;52.34;100226.36;111921;1248;21955;-85
2023/07/13 09:58:54;;;;;;;4.00;2.20;;;;;;;24.37;52.36;100224.03;111468;1256;22030;-86
2023/07/13 10:02:04;;;;;;;;;;;;;;;;;;;;;
2023/07/13 10:05:22;;;;;;;6.10;2.10;;;;;;;24.52;51.57;100227.15;111227;1257;21996;-84
2023/07/13 10:08:34;;;;;;;6.30;2.60;;;;;;;24.60;51.43;100231.92;110879;1258;23031;-82
2023/07/13 10:11:29;;;;;;;3.20;2.20;;;;;;;24.77;51.12;100232.79;111057;1258;23749;-82
2023/07/13 10:14:53;;;;;;;2.80;2.10;;;;;;;24.97;51.00;100234.97;111514;1250;22393;-80
2023/07/13 10:18:10;;;;;;;4.20;2.50;;;;;;;25.29;51.26;100238.07;112219;1246;21989;-82
2023/07/13 10:21:21;;;;;;;7.20;3.00;;;;;;;25.52;50.33;100234.79;111623;1252;21987;-80
2023/07/13 10:24:33;;;;;;;9.30;3.00;;;;;;;25.75;49.91;100238.20;112298;1247;21963;-82
2023/07/13 10:27:47;;;;;;;4.50;2.80;;;;;;;26.02;49.62;100242.89;112197;1247;21959;-83
2023/07/13 10:30:35;;;;;;;8.20;3.00;;;;;;;26.31;49.07;100244.94;111510;1255;22010;-83
2023/07/13 10:34:21;;;;;;;;;;;;;;;;;;;;;
2023/07/13 10:37:21;;;;;;;6.00;3.10;;;;;;;26.59;47.39;100246.13;110197;1268;23820;-81
2023/07/13 10:40:13;;;;;;;5.40;2.80;;;;;;;26.58;47.11;100250.92;109496;1272;22240;-82
2023/07/13 10:42:56;;;;;;;5.80;3.00;;;;;;;26.48;47.04;100251.90;111170;1260;21989;-82
2023/07/13 10:46:00;;;;;;;4.30;2.60;;;;;;;26.47;47.60;100255.00;110901;1260;23610;-84
2023/07/13 10:49:20;;;;;;;8.50;5.10;;;;;;;26.42;47.39;100257.70;110943;1258;21976;-82
2023/07/13 10:52:46;;;;;;;5.00;3.40;;;;;;;26.34;47.67;100256.08;111304;1258;22737;-81
2023/07/13 10:55:54;;;;;;;6.20;3.40;;;;;;;26.33;47.73;100257.47;110534;1263;22784;-83
2023/07/13 10:59:30;;;;;;;3.70;2.30;;;;;;;26.25;47.96;100261.77;110979;1259;22188;-85
2023/07/13 11:02:27;;;;;;;6.00;3.10;;;;;;;26.23;48.17;100267.08;110582;1264;22024;-84
2023/07/13 11:05:42;;;;;;;4.20;3.00;;;;;;;26.19;47.83;100260.58;110521;1264;21984;-82
2023/07/13 11:08:51;;;;;;;;;;;;;;;26.21;47.96;100261.69;110379;1260;21985;-81
2023/07/13 11:11:32;;;;;;;4.50;2.50;;;;;;;26.20;48.25;100258.14;110429;1266;21986;-83
2023/07/13 11:15:06;;;;;;;5.90;2.80;;;;;;;26.32;48.20;100252.73;110507;1263;22185;-87
2023/07/13 11:18:02;;;;;;;7.50;2.90;;;;;;;26.39;47.86;100249.84;110115;1268;21970;-83
2023/07/13 11:21:28;;;;;;;4.20;2.90;;;;;;;26.39;47.33;100251.40;110301;1265;22417;-88
2023/07/13 11:25:05;;;;;;;3.60;2.40;;;;;;;26.39;47.01;100249.16;109662;1272;23617;-81
2023/07/13 11:28:06;;;;;;;4.40;3.20;;;;;;;26.40;46.45;100245.99;108985;1280;21970;-86
2023/07/13 11:31:21;;;;;;;5.00;3.00;;;;;;;26.42;46.11;100248.94;108835;1280;21993;-83
2023/07/13 11:34:30;;;;;;;3.90;3.10;;;;;;;26.43;46.29;100249.17;108931;1281;21997;-84
2023/07/13 11:38:09;;;;;;;;;;;;;;;;;;;;;
2023/07/13 11:41:29;;;;;;;5.60;5.00;;;;;;;26.65;46.16;100242.23;109791;1269;22001;-84
2023/07/13 11:44:56;;;;;;;4.10;2.60;;;;;;;26.76;45.76;100241.60;109951;1270;23599;-80
2023/07/13 11:48:07;;;;;;;4.60;3.10;;;;;;;26.79;45.38;100244.14;109925;1262;23132;-88
2023/07/13 11:51:39;;;;;;;3.70;2.90;;;;;;;26.77;45.61;100244.38;110057;1270;21985;-89
2023/07/13 11:55:16;;;;;;;3.50;2.70;;;;;;;26.73;45.43;100246.98;109889;1268;22021;-83
2023/07/13 11:58:47;;;;;;;5.00;2.50;;;;;;;26.73;45.77;100253.01;110558;1258;21966;-84
2023/07/13 12:02:01;;;;;;;5.20;4.70;;;;;;;26.82;45.97;100251.01;110670;1263;22046;-82
2023/07/13 12:04:38;;;;;;;5.90;3.10;;;;;;;26.84;44.83;100251.77;110657;1265;23656;-82
2023/07/13 12:07:43;;;;;;;4.10;3.20;;;;;;;26.78;44.67;100251.57;110199;1266;21975;-84
2023/07/13 12:10:41;;;;;;;4.00;2.70;;;;;;;26.82;44.99;100251.14;110154;1265;21995;-83
2023/07/13 12:13:35;;;;;;;4.30;2.40;;;;;;;26.86;44.63;100248.91;110313;1264;22072;-83
2023/07/13 12:16:42;;;;;;;4.90;2.90;;;;;;;26.97;44.70;100240.05;109767;1265;23643;-90
2023/07/13 12:19:59;;;;;;;5.50;2.60;;;;;;;27.08;44.62;100236.23;109673;1270;21990;-82
2023/07/13 12:23:12;;;;;;;4.80;2.60;;;;;;;27.10;44.30;100239.90;110156;1266;21988;-84
2023/07/13 12:26:42;;;;;;;4.20;2.00;;;;;;;26.98;44.15;100236.02;108837;1282;21991;-82
2023/07/13 12:29:56;;;;;;;;;;;;;;;26.97;44.22;100236.11;108842;1282;21983;-84
2023/07/13 12:33:09;;;;;;;5.70;2.00;;;;;;;26.87;44.49;100238.65;109198;1275;21998;-84
2023/07/13 12:36:28;;;;;;;;;;;;;;;;;;;;;
2023/07/13 12:39:48;;;;;;;5.50;2.70;;;;;;;27.07;44.44;100230.71;109082;1278;23046;-84
2023/07/13 12:42:41;;;;;;;4.30;2.40;;;;;;;27.10;44.21;100225.83;108819;1283;22139;-83
2023/07/13 12:45:54;;;;;;;3.30;2.80;;;;;;;27.11;43.80;100222.86;108900;1283;22035;-84
2023/07/13 12:49:00;;;;;;;3.40;2.10;;;;;;;26.98;43.25;100222.16;109250;1278;21994;-86
2023/07/13 12:52:20;;;;;;;4.90;2.30;;;;;;;27.05;43.24;100222.09;109488;1274;22475;-83
2023/07/13 12:55:32;;;;;;;3.60;2.20;;;;;;;27.17;42.71;100219.53;109409;1274;22007;-84
2023/07/13 12:59:27;;;;;;;4.20;2.00;;;;;;;27.28;42.42;100219.61;109569;1272;21999;-85
2023/07/13 13:02:00;;;;;;;7.20;2.20;;;;;;;27.26;41.36;100209.60;110400;1267;21999;-81
2023/07/13 13:04:57;;;;;;;3.90;2.10;;;;;;;27.21;40.88;100215.82;110230;1267;22011;-82
2023/07/13 13:08:13;;;;;;;5.10;1.20;;;;;;;27.21;40.00;100221.14;110280;1267;22055;-86
2023/07/13 13:11:27;;;;;;;2.60;1.70;;;;;;;27.16;38.91;100217.42;110790;1259;21976;-82
2023/07/13 13:14:40;;;;;;;3.00;1.70;;;;;;;27.17;38.45;100220.01;110869;1259;21979;-83
2023/07/13 13:21:17;;;;;;;3.40;1.90;;;;;;;27.22;37.70;100222.48;110331;1267;22162;-82
2023/07/13 13:23:53;;;;;;;2.60;1.70;;;;;;;27.29;37.44;100218.37;110305;1265;22736;-84
2023/07/13 13:27:24;;;;;;;3.10;1.60;;;;;;;27.29;37.46;100221.09;110273;1267;22010;-82
2023/07/13 13:30:17;;;;;;;3.50;1.80;;;;;;;27.20;37.14;100212.38;110096;1267;23663;-83
2023/07/13 13:36:32;;;;;;;3.00;1.90;;;;;;;27.05;37.25;100219.84;110341;1267;21983;-82
2023/07/13 13:39:53;;;;;;;5.00;2.20;;;;;;;27.10;37.05;100223.60;110292;1267;23064;-83
2023/07/13 13:43:45;;;;;;;2.10;1.50;;;;;;;27.12;37.14;100217.89;110091;1267;22024;-84
2023/07/13 13:50:55;;;;;;;3.10;1.60;;;;;;;27.22;36.88;100227.30;109122;1279;23718;-82
2023/07/13 13:53:42;;;;;;;3.80;1.70;;;;;;;27.20;36.51;100220.27;108935;1279;24324;-84
2023/07/13 13:57:09;;;;;;;6.60;1.80;;;;;;;27.19;36.68;100218.55;108983;1279;23734;-83
2023/07/13 14:00:40;;;;;;;2.80;1.90;;;;;;;27.26;36.90;100221.53;108641;1286;21995;-81
2023/07/13 14:03:51;;;;;;;4.90;1.50;;;;;;;27.28;36.42;100215.77;108506;1283;23083;-83
2023/07/13 14:06:52;;;;;;;5.30;1.70;;;;;;;27.32;36.30;100215.95;108019;1292;23642;-83
2023/07/13 14:09:20;;;;;;;4.20;1.90;;;;;;;27.42;36.24;100218.02;108023;1292;22018;-82
2023/07/13 14:11:57;;;;;;;3.50;1.50;;;;;;;27.56;36.08;100218.58;108084;1290;22087;-83
2023/07/13 14:15:11;;;;;;;;;;;;;;;;;;;;;
2023/07/13 14:17:57;;;;;;;2.40;1.10;;;;;;;27.80;33.95;100217.83;108415;1284;22338;-80
2023/07/13 14:20:56;;;;;;;2.60;1.40;;;;;;;27.94;33.19;100219.21;109182;1269;23752;-87
2023/07/13 14:24:19;;;;;;;4.70;1.20;;;;;;;28.04;32.46;100223.27;110161;1262;22113;-86
2023/07/13 14:27:14;;;;;;;2.80;1.40;;;;;;;28.14;31.98;100222.85;110987;1262;21959;-85
2023/07/13 14:30:20;;;;;;;;;;;;;;;28.15;31.41;100213.73;111014;1263;21969;-84
2023/07/13 14:33:14;;;;;;;3.80;1.80;;;;;;;28.03;31.45;100208.76;110734;1263;23580;-84
2023/07/13 14:36:37;;;;;;;2.70;1.60;;;;;;;27.96;31.50;100202.02;110390;1260;21959;-83
2023/07/13 14:39:21;;;;;;;4.00;1.70;;;;;;;27.90;31.78;100205.11;111152;1254;22044;-81
2023/07/13 14:41:59;;;;;;;18.60;4.10;;;;;;;27.88;32.36;100204.08;111029;1259;21986;-83
2023/07/13 14:44:44;;;;;;;3.20;1.50;;;;;;;27.90;32.75;100201.39;111160;1259;22228;-88
2023/07/13 14:47:24;;;;;;;3.60;1.50;;;;;;;27.87;32.87;100201.20;111227;1259;22599;-85
2023/07/13 14:50:01;;;;;;;4.40;1.90;;;;;;;27.83;32.63;100193.77;111097;1260;22720;-86
2023/07/13 14:52:44;;;;;;;6.20;1.70;;;;;;;27.80;32.57;100190.52;110421;1265;22103;-82
2023/07/13 14:55:26;;;;;;;4.40;1.60;;;;;;;27.67;32.21;100187.02;110664;1264;21965;-83
2023/07/13 14:57:59;;;;;;;4.40;1.90;;;;;;;27.54;32.47;100187.27;110828;1264;21997;-85
2023/07/13 15:00:37;;;;;;;16.10;2.80;;;;;;;27.44;32.93;100193.53;110602;1265;22179;-80
2023/07/13 15:03:33;;;;;;;2.60;1.50;;;;;;;27.36;33.15;100197.64;110672;1260;22722;-79
2023/07/13 15:06:22;;;;;;;3.60;2.20;;;;;;;27.33;33.35;100200.86;110626;1260;21994;-83
2023/07/13 15:09:01;;;;;;;3.90;2.10;;;;;;;27.35;33.18;100200.03;111096;1260;21973;-87
2023/07/13 15:11:38;;;;;;;5.40;2.00;;;;;;;27.39;33.11;100200.50;110318;1266;21990;-86
2023/07/13 15:14:14;;;;;;;3.50;1.80;;;;;;;27.36;33.04;100196.21;110165;1266;22722;-82
2023/07/13 15:17:29;;;;;;;3.50;2.10;;;;;;;27.41;33.01;100208.06;110637;1261;22153;-90
2023/07/13 15:20:33;;;;;;;7.50;1.70;;;;;;;27.39;32.62;100206.03;110494;1262;22032;-86
2023/07/13 15:23:13;;;;;;;5.10;2.00;;;;;;;27.34;32.21;100205.38;110533;1260;21972;-85
2023/07/13 15:26:29;;;;;;;4.00;1.70;;;;;;;27.26;32.29;100210.50;110781;1261;21964;-84
2023/07/13 15:29:26;;;;;;;5.10;1.60;;;;;;;27.14;32.46;100214.98;110672;1255;23086;-85
2023/07/13 15:33:17;;;;;;;6.40;1.60;;;;;;;27.03;32.59;100207.33;111542;1255;23068;-86
2023/07/13 15:36:04;;;;;;;2.80;1.40;;;;;;;26.82;32.64;100193.47;111086;1256;21978;-85
2023/07/13 15:38:58;;;;;;;;;;;;;;;;;;;;;
2023/07/13 15:41:56;;;;;;;6.10;1.70;;;;;;;26.77;32.76;100206.52;111210;1255;23734;-85
2023/07/13 15:44:58;;;;;;;6.60;1.70;;;;;;;26.72;32.94;100205.84;111263;1250;23017;-85
2023/07/13 15:48:28;;;;;;;6.00;1.70;;;;;;;26.64;33.11;100208.09;111446;1255;21975;-84
2023/07/13 15:51:40;;;;;;;3.10;1.70;;;;;;;26.56;33.31;100209.15;111157;1255;22769;-84
2023/07/13 15:54:58;;;;;;;;;;;;;;;;;;;;;
2023/07/13 15:58:06;;;;;;;;;;;;;;;;;;;;;
2023/07/13 16:01:10;;;;;;;3.20;1.90;;;;;;;26.43;33.67;100209.23;110910;1260;22103;-84
2023/07/13 16:04:05;;;;;;;3.60;2.10;;;;;;;26.46;33.91;100214.86;110807;1260;21966;-83
2023/07/13 16:07:25;;;;;;;3.00;1.90;;;;;;;26.47;33.90;100215.60;110640;1260;22177;-84
2023/07/13 16:09:59;;;;;;;3.20;1.80;;;;;;;26.54;34.15;100212.98;110694;1257;21980;-84
2023/07/13 16:12:40;;;;;;;5.10;1.90;;;;;;;26.61;34.18;100211.48;110855;1260;22489;-86
2023/07/13 16:15:27;;;;;;;2.30;1.60;;;;;;;26.69;34.05;100211.67;110233;1261;22843;-82
2023/07/13 16:18:10;;;;;;;3.40;1.80;;;;;;;26.77;33.78;100212.17;110469;1261;23124;-83
2023/07/13 16:20:58;;;;;;;3.30;2.00;;;;;;;26.79;33.42;100214.73;110794;1261;22008;-82
2023/07/13 16:24:15;;;;;;;3.50;1.60;;;;;;;26.65;33.07;100203.57;110807;1261;23052;-85
2023/07/13 16:27:06;;;;;;;3.70;1.50;;;;;;;26.63;33.02;100214.52;110847;1261;23623;-86
2023/07/13 16:29:53;;;;;;;3.80;2.10;;;;;;;26.55;33.04;100212.11;110769;1261;21965;-84
2023/07/13 16:32:37;;;;;;;2.80;1.80;;;;;;;26.51;33.21;100217.87;110696;1261;22433;-85
2023/07/13 16:35:28;;;;;;;4.80;2.10;;;;;;;26.49;34.22;100220.59;110584;1260;21977;-85